Black Earth, Wisconsin
Current Conditions -  °F | °C
As of 9:55 PM on Thursday 27 Nov 2014 (Local Time) from KC29 Reporting Station
Clear Clear  
Wind Chill: 11°   Ceiling: Unl
Heat Index: 11°   Visibility: 10mi
Dew Point:   Wind: 0mph
Humidity: 81%   Direction: NA
Pressure: 30.37"   Gusts: NA
Location:  43.14°N, 89.75°W
Report Text: KC29 280355Z AUTO 00000KT 10SM CLR M12/M14 A3037 RMK AO1 T11161143
Loading
Personal Weather Stations






























Interactive Weather Map New forecast layout! Learn more

10-Day Weather Forecast

Advertisements
Track Severe Weather on mobile